createdAt,value
2022-09-15T00:01:29.715Z,87.18
2022-09-15T00:03:58.257Z,87.17
2022-09-15T00:06:26.503Z,87.32
2022-09-15T00:08:55.125Z,87.35
2022-09-15T00:11:27.106Z,87.67
2022-09-15T00:13:58.809Z,87.35
2022-09-15T00:16:30.864Z,87.36
2022-09-15T00:19:00.484Z,87.29
2022-09-15T00:21:32.098Z,87.54
2022-09-15T00:24:01.631Z,87.79
2022-09-15T00:26:31.615Z,88.03
2022-09-15T00:29:00.846Z,88.40
2022-09-15T00:31:31.001Z,88.37
2022-09-15T00:34:02.641Z,88.43
2022-09-15T00:36:33.039Z,88.60
2022-09-15T00:39:01.428Z,88.62
2022-09-15T00:41:30.582Z,88.81
2022-09-15T00:44:02.164Z,88.43
2022-09-15T00:46:30.235Z,88.11
2022-09-15T00:49:06.078Z,88.50
2022-09-15T00:52:07.340Z,88.57
2022-09-15T00:54:53.985Z,88.26
2022-09-15T00:57:29.506Z,88.31
2022-09-15T01:00:00.791Z,88.37
2022-09-15T01:03:03.957Z,88.38
2022-09-15T01:05:41.356Z,87.77
2022-09-15T01:08:19.373Z,87.84
2022-09-15T01:10:47.735Z,88.07
2022-09-15T01:13:15.858Z,87.93
2022-09-15T01:19:45.331Z,87.74
2022-09-15T01:22:30.304Z,87.70
2022-09-15T01:25:08.895Z,87.93
2022-09-15T01:27:51.702Z,88.10
2022-09-15T01:30:23.822Z,87.95
2022-09-15T01:33:04.370Z,87.47
2022-09-15T01:35:36.336Z,87.58
2022-09-15T01:38:22.405Z,87.61
2022-09-15T01:41:03.324Z,87.29
2022-09-15T01:43:33.823Z,87.34
2022-09-15T01:46:04.287Z,87.43
2022-09-15T01:48:36.042Z,87.39
2022-09-15T01:51:06.371Z,87.43
2022-09-15T01:53:35.284Z,87.93
2022-09-15T01:56:07.841Z,87.67
2022-09-15T01:58:37.984Z,87.84
2022-09-15T02:01:15.841Z,87.71
2022-09-15T02:03:50.358Z,87.62
2022-09-15T02:06:33.980Z,87.58
2022-09-15T02:09:15.064Z,87.68
2022-09-15T02:12:03.304Z,88.03
2022-09-15T02:15:04.042Z,87.93
2022-09-15T02:17:42.795Z,87.81
2022-09-15T02:20:15.701Z,87.79
2022-09-15T02:22:49.387Z,87.79
2022-09-15T02:25:24.516Z,87.57
2022-09-15T02:27:56.708Z,87.64
2022-09-15T02:30:25.176Z,87.87
2022-09-15T02:32:58.443Z,87.60
2022-09-15T02:35:28.812Z,87.72
2022-09-15T02:37:58.141Z,87.14
2022-09-15T02:40:28.926Z,86.87
2022-09-15T02:42:58.001Z,86.86
2022-09-15T02:45:26.952Z,87.46
2022-09-15T02:47:55.137Z,87.92
2022-09-15T02:50:26.483Z,88.03
2022-09-15T02:52:55.535Z,87.84
2022-09-15T02:55:27.326Z,88.05
2022-09-15T02:57:56.803Z,87.61
2022-09-15T03:00:26.266Z,87.19
2022-09-15T03:02:54.932Z,87.28
2022-09-15T03:05:26.424Z,87.00
2022-09-15T03:07:55.317Z,87.22
2022-09-15T03:10:25.112Z,87.77
2022-09-15T03:12:54.868Z,87.71
2022-09-15T03:15:25.376Z,88.05
2022-09-15T03:17:54.418Z,87.83
2022-09-15T03:20:26.029Z,87.29
2022-09-15T03:22:54.909Z,86.75
2022-09-15T03:25:23.602Z,87.39
2022-09-15T03:27:51.937Z,87.76
2022-09-15T03:30:19.947Z,87.99
2022-09-15T03:32:48.781Z,87.89
2022-09-15T03:35:17.269Z,87.96
2022-09-15T03:37:45.858Z,87.97
2022-09-15T03:40:14.482Z,87.50
2022-09-15T03:42:42.683Z,87.48
2022-09-15T03:45:10.803Z,86.91
2022-09-15T03:47:39.103Z,87.22
2022-09-15T03:50:07.478Z,87.63
2022-09-15T03:52:35.504Z,87.52
2022-09-15T03:55:03.661Z,87.45
2022-09-15T03:57:31.749Z,87.17
2022-09-15T03:59:59.992Z,87.26
2022-09-15T04:02:28.068Z,87.28
2022-09-15T04:04:56.792Z,87.24
2022-09-15T04:07:24.875Z,86.71
2022-09-15T04:09:53.386Z,86.69
2022-09-15T04:12:21.811Z,87.12
2022-09-15T04:14:49.881Z,87.17
2022-09-15T04:17:17.952Z,87.72
2022-09-15T04:19:46.843Z,87.55
2022-09-15T04:22:17.878Z,87.54
2022-09-15T04:24:48.328Z,87.69
2022-09-15T04:27:17.344Z,88.28
2022-09-15T04:29:45.453Z,88.37
2022-09-15T04:32:13.893Z,88.46
2022-09-15T04:34:42.029Z,88.01
2022-09-15T04:37:10.873Z,88.07
2022-09-15T04:39:39.166Z,88.12
2022-09-15T04:42:07.889Z,88.23
2022-09-15T04:44:36.028Z,88.31
2022-09-15T04:47:04.402Z,88.36
2022-09-15T04:49:32.490Z,88.13
2022-09-15T04:52:00.844Z,88.13
2022-09-15T04:54:28.981Z,88.07
2022-09-15T04:56:56.997Z,88.29
2022-09-15T04:59:25.059Z,88.39
2022-09-15T05:01:56.935Z,88.22
2022-09-15T05:04:25.133Z,88.36
2022-09-15T05:06:53.304Z,87.95
2022-09-15T05:09:21.928Z,87.71
2022-09-15T05:11:49.990Z,88.11
2022-09-15T05:14:18.335Z,88.05
2022-09-15T05:16:46.627Z,87.72
2022-09-15T05:19:14.802Z,87.66
2022-09-15T05:21:43.226Z,87.89
2022-09-15T05:24:11.777Z,87.93
2022-09-15T05:26:39.955Z,87.90
2022-09-15T05:29:08.449Z,87.84
2022-09-15T05:31:36.850Z,87.70
2022-09-15T05:34:06.518Z,87.77
2022-09-15T05:36:34.725Z,87.63
2022-09-15T05:39:03.345Z,87.46
2022-09-15T05:41:31.601Z,87.64
2022-09-15T05:43:59.929Z,87.68
2022-09-15T05:46:29.538Z,87.53
2022-09-15T05:48:58.774Z,87.35
2022-09-15T05:51:27.888Z,87.63
2022-09-15T05:53:56.449Z,87.78
2022-09-15T05:56:24.840Z,87.76
2022-09-15T05:58:53.147Z,87.49
2022-09-15T06:01:24.124Z,87.40
2022-09-15T06:03:53.755Z,87.94
2022-09-15T06:06:23.599Z,88.11
2022-09-15T06:08:58.368Z,88.21
2022-09-15T06:11:30.195Z,87.48
2022-09-15T06:14:03.588Z,87.86
2022-09-15T06:16:34.873Z,87.88
2022-09-15T06:19:03.383Z,87.81
2022-09-15T06:21:32.896Z,87.67
2022-09-15T06:24:03.763Z,87.64
2022-09-15T06:26:31.952Z,87.73
2022-09-15T06:29:02.857Z,87.65
2022-09-15T06:31:33.034Z,87.00
2022-09-15T06:34:02.439Z,86.87
2022-09-15T06:36:31.674Z,87.45
2022-09-15T06:39:00.186Z,87.63
2022-09-15T06:41:52.562Z,87.69
2022-09-15T06:44:20.875Z,87.51
2022-09-15T06:46:49.444Z,87.65
2022-09-15T06:49:17.833Z,87.62
2022-09-15T06:51:46.182Z,88.03
2022-09-15T06:54:18.385Z,88.06
2022-09-15T06:56:47.611Z,88.25
2022-09-15T06:59:16.835Z,88.69
2022-09-15T07:02:04.102Z,88.12
2022-09-15T07:04:36.989Z,87.85
2022-09-15T07:07:05.536Z,87.91
2022-09-15T07:09:33.603Z,87.79
2022-09-15T07:12:01.975Z,88.02
2022-09-15T07:14:30.385Z,87.75
2022-09-15T07:16:58.666Z,87.42
2022-09-15T07:19:27.031Z,87.22
2022-09-15T07:21:55.154Z,87.24
2022-09-15T07:24:23.281Z,86.98
2022-09-15T07:26:52.157Z,87.00
2022-09-15T07:29:20.834Z,87.13
2022-09-15T07:31:49.095Z,86.95
2022-09-15T07:34:17.448Z,86.80
2022-09-15T07:36:45.695Z,86.58
2022-09-15T07:39:14.491Z,86.74
2022-09-15T07:41:42.516Z,86.80
2022-09-15T07:44:13.333Z,87.13
2022-09-15T07:46:41.432Z,86.51
2022-09-15T07:49:10.363Z,86.36
2022-09-15T07:51:38.869Z,86.45
2022-09-15T07:54:07.404Z,86.38
2022-09-15T07:56:35.779Z,85.76
2022-09-15T07:59:03.956Z,85.91
2022-09-15T08:01:32.469Z,85.52
2022-09-15T08:04:00.670Z,85.38
2022-09-15T08:06:29.373Z,84.83
2022-09-15T08:09:00.721Z,85.15
2022-09-15T08:11:30.101Z,85.55
2022-09-15T08:14:02.394Z,85.79
2022-09-15T08:16:31.166Z,86.71
2022-09-15T08:18:59.748Z,86.08
2022-09-15T08:21:28.420Z,85.70
2022-09-15T08:23:58.671Z,84.79
2022-09-15T08:26:28.589Z,85.03
2022-09-15T08:28:58.063Z,85.42
2022-09-15T08:31:26.540Z,85.60
2022-09-15T08:33:56.016Z,85.88
2022-09-15T08:36:27.879Z,85.61
2022-09-15T08:38:56.776Z,85.70
2022-09-15T08:41:34.367Z,86.35
2022-09-15T08:44:27.075Z,86.59
2022-09-15T08:46:59.941Z,85.39
2022-09-15T08:49:50.455Z,84.44
2022-09-15T08:52:30.579Z,84.55
2022-09-15T08:55:14.771Z,83.96
2022-09-15T08:57:42.980Z,83.63
2022-09-15T09:00:16.640Z,84.02
2022-09-15T09:03:21.610Z,82.69
2022-09-15T09:05:55.741Z,82.05
2022-09-15T09:08:26.819Z,81.25
2022-09-15T09:11:01.754Z,81.81
2022-09-15T09:13:38.167Z,81.75
2022-09-15T09:16:28.044Z,81.35
2022-09-15T09:19:02.082Z,81.24
2022-09-15T09:21:40.834Z,81.13
2022-09-15T09:24:17.403Z,81.33
2022-09-15T09:26:50.164Z,80.17
2022-09-15T09:29:21.070Z,79.89
2022-09-15T09:31:52.229Z,80.06
2022-09-15T09:34:29.318Z,79.36
2022-09-15T09:37:12.037Z,79.04
2022-09-15T09:39:40.717Z,78.57
2022-09-15T09:42:16.089Z,78.55
2022-09-15T09:44:45.660Z,77.97
2022-09-15T09:47:14.512Z,78.36
2022-09-15T09:49:46.295Z,78.47
2022-09-15T09:52:34.093Z,78.76
2022-09-15T09:55:23.769Z,78.18
2022-09-15T09:57:52.006Z,77.29
2022-09-15T10:00:37.543Z,75.40
2022-09-15T10:03:16.613Z,75.90
2022-09-15T10:05:46.682Z,75.52
2022-09-15T10:08:20.437Z,74.02
2022-09-15T10:10:58.542Z,74.40
2022-09-15T10:13:26.742Z,74.87
2022-09-15T10:16:02.539Z,75.57
2022-09-15T10:18:35.471Z,75.99
2022-09-15T10:21:06.382Z,74.73
2022-09-15T10:23:35.817Z,74.33
2022-09-15T10:26:16.344Z,73.78
2022-09-15T10:28:46.025Z,73.42
2022-09-15T10:31:30.698Z,73.71
2022-09-15T10:33:59.031Z,73.71
2022-09-15T10:36:32.155Z,73.10
2022-09-15T10:39:09.138Z,72.04
2022-09-15T10:42:04.739Z,72.48
2022-09-15T10:44:47.144Z,73.13
2022-09-15T10:47:38.349Z,73.80
2022-09-15T10:50:23.584Z,72.77
2022-09-15T10:53:17.123Z,72.06
2022-09-15T10:56:19.103Z,70.94
2022-09-15T10:59:25.217Z,71.35
2022-09-15T11:02:14.792Z,71.19
2022-09-15T11:04:45.741Z,70.51
2022-09-15T11:07:19.901Z,70.88
2022-09-15T11:10:01.759Z,71.14
2022-09-15T11:12:46.449Z,70.85
2022-09-15T11:15:42.406Z,70.67
2022-09-15T11:18:27.088Z,70.96
2022-09-15T11:21:26.900Z,71.03
2022-09-15T11:23:58.361Z,71.36
2022-09-15T11:26:34.486Z,71.35
2022-09-15T11:29:22.479Z,71.65
2022-09-15T11:31:57.361Z,72.01
2022-09-15T11:34:39.177Z,71.48
2022-09-15T11:37:15.339Z,71.24
2022-09-15T11:40:02.184Z,70.79
2022-09-15T11:42:45.046Z,71.04
2022-09-15T11:45:21.742Z,69.55
2022-09-15T11:48:02.208Z,69.05
2022-09-15T11:50:38.042Z,68.77
2022-09-15T11:53:16.975Z,68.67
2022-09-15T11:55:57.628Z,68.60
2022-09-15T11:58:33.323Z,68.69
2022-09-15T12:01:10.763Z,69.34
2022-09-15T12:03:55.784Z,69.38
2022-09-15T12:06:45.544Z,68.60
2022-09-15T12:09:17.185Z,69.20
2022-09-15T12:11:47.863Z,69.56
2022-09-15T12:14:36.177Z,69.02
2022-09-15T12:17:06.434Z,69.52
2022-09-15T12:19:50.286Z,69.33
2022-09-15T12:22:35.207Z,69.83
2022-09-15T12:25:16.687Z,69.56
2022-09-15T12:28:23.066Z,69.64
2022-09-15T12:31:27.597Z,69.86
2022-09-15T12:33:56.045Z,70.13
2022-09-15T12:36:33.653Z,69.66
2022-09-15T12:39:05.317Z,70.33
2022-09-15T12:41:33.563Z,70.49
2022-09-15T12:44:22.419Z,69.84
2022-09-15T12:47:07.317Z,70.25
2022-09-15T12:49:43.257Z,70.33
2022-09-15T12:52:12.894Z,70.11
2022-09-15T12:54:45.725Z,70.35
2022-09-15T12:57:23.440Z,70.04
2022-09-15T13:00:20.687Z,69.50
2022-09-15T13:02:51.428Z,69.10
2022-09-15T13:05:39.053Z,69.20
2022-09-15T13:08:15.378Z,69.45
2022-09-15T13:11:09.519Z,69.49
2022-09-15T13:14:08.852Z,69.92
2022-09-15T13:17:07.344Z,70.42
2022-09-15T13:19:41.616Z,70.11
2022-09-15T13:22:10.758Z,70.42
2022-09-15T13:24:59.077Z,70.83
2022-09-15T13:27:41.143Z,70.56
2022-09-15T13:30:09.742Z,70.54
2022-09-15T13:32:53.105Z,70.94
2022-09-15T13:35:39.731Z,71.33
2022-09-15T13:38:46.064Z,71.20
2022-09-15T13:41:25.505Z,71.06
2022-09-15T13:44:27.653Z,70.60
2022-09-15T13:47:07.776Z,70.41
2022-09-15T13:50:06.259Z,70.12
2022-09-15T13:52:57.252Z,70.37
2022-09-15T13:55:28.858Z,70.09
2022-09-15T14:00:52.209Z,70.38
2022-09-15T14:03:27.488Z,70.26
2022-09-15T14:05:57.019Z,70.26
2022-09-15T14:08:30.408Z,70.35
2022-09-15T14:11:01.902Z,69.91
2022-09-15T14:13:31.416Z,69.67
2022-09-15T14:16:10.422Z,70.07
2022-09-15T14:18:46.289Z,70.31
2022-09-15T14:21:23.430Z,70.58
2022-09-15T14:23:54.967Z,70.48
2022-09-15T14:26:27.189Z,70.02
2022-09-15T14:28:58.796Z,70.05
2022-09-15T14:31:45.236Z,69.88
2022-09-15T14:34:25.567Z,69.56
2022-09-15T14:37:04.813Z,70.03
2022-09-15T14:39:34.269Z,70.20
2022-09-15T14:42:21.245Z,70.09
2022-09-15T14:47:41.251Z,70.82
2022-09-15T14:50:16.235Z,70.74
2022-09-15T14:52:46.754Z,70.91
2022-09-15T14:55:43.372Z,71.07
2022-09-15T14:58:14.782Z,71.60
2022-09-15T15:00:57.654Z,71.71
2022-09-15T15:03:50.605Z,71.68
2022-09-15T15:06:32.912Z,71.47
2022-09-15T15:09:09.811Z,71.74
2022-09-15T15:11:40.312Z,71.52
2022-09-15T15:14:11.571Z,71.76
2022-09-15T15:16:51.914Z,71.79
2022-09-15T15:19:34.940Z,71.77
2022-09-15T15:22:20.181Z,71.54
2022-09-15T15:24:51.695Z,71.86
2022-09-15T15:27:35.105Z,71.99
2022-09-15T15:30:29.771Z,72.15
2022-09-15T15:33:04.295Z,72.17
2022-09-15T15:35:35.771Z,72.08
2022-09-15T15:38:11.866Z,72.21
2022-09-15T15:40:41.855Z,71.90
2022-09-15T15:43:26.352Z,72.18
2022-09-15T15:46:01.225Z,72.00
2022-09-15T15:48:36.901Z,72.47
2022-09-15T15:51:08.165Z,72.03
2022-09-15T15:53:36.291Z,72.45
2022-09-15T15:56:04.424Z,72.74
2022-09-15T15:58:32.522Z,72.71
2022-09-15T16:01:00.990Z,72.30
2022-09-15T16:03:29.245Z,72.22
2022-09-15T16:05:59.590Z,72.23
2022-09-15T16:08:33.456Z,72.56
2022-09-15T16:11:03.069Z,72.72
2022-09-15T16:13:31.544Z,72.68
2022-09-15T16:16:01.238Z,72.69
2022-09-15T16:18:29.936Z,73.02
2022-09-15T16:20:58.071Z,73.15
2022-09-15T16:23:26.846Z,73.21
2022-09-15T16:26:05.936Z,73.20
2022-09-15T16:28:34.312Z,73.36
2022-09-15T16:31:02.851Z,73.82
2022-09-15T16:33:35.915Z,73.91
2022-09-15T16:36:09.041Z,74.20
2022-09-15T16:38:37.150Z,74.17
2022-09-15T16:41:28.369Z,74.40
2022-09-15T16:43:56.883Z,74.35
2022-09-15T16:46:25.365Z,74.37
2022-09-15T16:48:53.810Z,74.67
2022-09-15T16:51:29.959Z,75.06
2022-09-15T16:53:59.553Z,75.12
2022-09-15T16:56:28.316Z,75.22
2022-09-15T16:59:00.150Z,75.20
2022-09-15T17:01:28.752Z,75.23
2022-09-15T17:03:59.585Z,75.33
2022-09-15T17:06:28.253Z,75.52
2022-09-15T17:08:56.347Z,75.70
2022-09-15T17:11:25.842Z,75.72
2022-09-15T17:13:54.484Z,75.84
2022-09-15T17:16:22.831Z,75.88
2022-09-15T17:18:51.339Z,76.30
2022-09-15T17:21:19.909Z,76.26
2022-09-15T17:23:49.906Z,76.33
2022-09-15T17:26:21.916Z,76.39
2022-09-15T17:28:51.052Z,76.40
2022-09-15T17:31:21.972Z,76.54
2022-09-15T17:33:52.369Z,76.73
2022-09-15T17:36:20.569Z,76.67
2022-09-15T17:38:49.130Z,76.79
2022-09-15T17:41:22.932Z,77.19
2022-09-15T17:43:52.578Z,77.34
2022-09-15T17:46:20.945Z,77.47
2022-09-15T17:48:48.980Z,77.66
2022-09-15T17:51:18.017Z,77.84
2022-09-15T17:53:47.308Z,77.79
2022-09-15T17:56:18.676Z,77.97
2022-09-15T17:58:47.000Z,78.05
2022-09-15T18:01:15.775Z,78.22
2022-09-15T18:03:45.230Z,78.23
2022-09-15T18:06:14.394Z,78.50
2022-09-15T18:08:42.518Z,78.35
2022-09-15T18:11:14.701Z,78.37
2022-09-15T18:13:43.221Z,78.69
2022-09-15T18:16:14.050Z,78.79
2022-09-15T18:18:43.147Z,78.98
2022-09-15T18:21:27.001Z,79.03
2022-09-15T18:23:58.852Z,79.19
2022-09-15T18:26:27.260Z,78.82
2022-09-15T18:28:56.611Z,79.08
2022-09-15T18:31:25.409Z,79.17
2022-09-15T18:33:53.987Z,79.39
2022-09-15T18:36:24.124Z,79.45
2022-09-15T18:38:52.477Z,79.57
2022-09-15T18:41:20.859Z,79.72
2022-09-15T18:43:49.246Z,79.49
2022-09-15T18:46:18.436Z,79.73
2022-09-15T18:48:46.758Z,79.55
2022-09-15T18:51:23.956Z,79.79
2022-09-15T18:53:54.431Z,79.84
2022-09-15T18:56:22.705Z,80.01
2022-09-15T18:58:53.774Z,79.87
2022-09-15T19:01:22.768Z,80.03
2022-09-15T19:03:51.106Z,79.93
2022-09-15T19:06:19.464Z,79.74
2022-09-15T19:08:47.560Z,79.95
2022-09-15T19:11:16.120Z,79.84
2022-09-15T19:13:44.386Z,79.86
2022-09-15T19:16:13.250Z,79.91
2022-09-15T19:18:41.461Z,80.22
2022-09-15T19:21:11.867Z,80.10
2022-09-15T19:23:40.127Z,80.10
2022-09-15T19:26:13.790Z,80.29
2022-09-15T19:28:44.646Z,80.32
2022-09-15T19:31:13.793Z,80.62
2022-09-15T19:33:42.496Z,80.67
2022-09-15T19:36:27.428Z,80.79
2022-09-15T19:38:59.398Z,80.45
2022-09-15T19:41:31.154Z,80.65
2022-09-15T19:44:02.383Z,80.69
2022-09-15T19:46:31.681Z,80.69
2022-09-15T19:49:01.716Z,80.63
2022-09-15T19:51:32.573Z,80.82
2022-09-15T19:54:01.779Z,80.88
2022-09-15T19:56:31.111Z,80.93
2022-09-15T19:58:59.723Z,80.97
2022-09-15T20:01:29.766Z,80.90
2022-09-15T20:06:43.925Z,80.85
2022-09-15T20:09:12.036Z,81.14
2022-09-15T20:11:40.331Z,81.19
2022-09-15T20:14:08.629Z,81.04
2022-09-15T20:16:37.093Z,80.99
2022-09-15T20:19:05.264Z,81.01
2022-09-15T20:21:52.043Z,81.32
2022-09-15T20:24:29.125Z,81.22
2022-09-15T20:26:58.987Z,81.08
2022-09-15T20:29:27.159Z,81.50
2022-09-15T20:31:55.302Z,81.28
2022-09-15T20:34:24.224Z,81.27
2022-09-15T20:36:52.371Z,81.09
2022-09-15T20:39:22.388Z,81.00
2022-09-15T20:41:53.506Z,80.90
2022-09-15T20:44:21.560Z,80.96
2022-09-15T20:46:50.697Z,80.79
2022-09-15T20:49:19.035Z,80.68
2022-09-15T20:51:47.162Z,80.66
2022-09-15T20:54:15.362Z,80.58
2022-09-15T20:56:44.175Z,80.71
2022-09-15T20:59:13.786Z,80.50
2022-09-15T21:01:42.029Z,80.60
2022-09-15T21:04:11.136Z,80.50
2022-09-15T21:06:39.680Z,80.54
2022-09-15T21:09:07.994Z,80.52
2022-09-15T21:11:37.447Z,80.45
2022-09-15T21:14:05.797Z,80.78
2022-09-15T21:16:35.037Z,80.48
2022-09-15T21:19:03.898Z,80.43
2022-09-15T21:21:33.807Z,80.64
2022-09-15T21:24:04.897Z,80.66
2022-09-15T21:26:35.230Z,80.67
2022-09-15T21:29:03.574Z,80.60
2022-09-15T21:31:33.493Z,80.64
2022-09-15T21:34:01.631Z,80.64
2022-09-15T21:36:31.416Z,80.50
2022-09-15T21:38:59.980Z,80.67
2022-09-15T21:41:32.295Z,80.76
2022-09-15T21:44:01.325Z,80.86
2022-09-15T21:46:31.413Z,81.05
2022-09-15T21:49:00.630Z,80.76
2022-09-15T21:51:29.674Z,80.98
2022-09-15T21:53:59.345Z,80.66
2022-09-15T21:56:29.200Z,80.81
2022-09-15T21:59:03.110Z,80.57
2022-09-15T22:01:33.023Z,80.80
2022-09-15T22:04:07.043Z,80.89
2022-09-15T22:06:40.279Z,80.94
2022-09-15T22:09:13.090Z,80.95
2022-09-15T22:11:41.756Z,81.03
2022-09-15T22:14:10.581Z,81.12
2022-09-15T22:16:40.421Z,81.10
2022-09-15T22:19:10.072Z,81.01
2022-09-15T22:21:42.063Z,80.89
2022-09-15T22:24:12.849Z,81.08
2022-09-15T22:26:42.944Z,80.89
2022-09-15T22:29:11.690Z,80.98
2022-09-15T22:31:39.894Z,81.27
2022-09-15T22:34:08.053Z,81.20
2022-09-15T22:36:36.309Z,81.31
2022-09-15T22:39:05.704Z,81.39
2022-09-15T22:41:38.414Z,81.43
2022-09-15T22:44:16.215Z,81.56
2022-09-15T22:46:44.866Z,81.56
2022-09-15T22:49:13.057Z,81.47
2022-09-15T22:51:41.083Z,81.55
2022-09-15T22:54:09.344Z,81.58
2022-09-15T22:56:37.643Z,81.48
2022-09-15T22:59:06.296Z,81.49
2022-09-15T23:01:34.741Z,81.32
2022-09-15T23:04:03.719Z,81.36
2022-09-15T23:06:33.909Z,81.49
2022-09-15T23:09:07.800Z,81.29
2022-09-15T23:11:39.747Z,81.25
2022-09-15T23:14:13.497Z,81.46
2022-09-15T23:16:43.147Z,81.33
2022-09-15T23:19:14.627Z,81.47
2022-09-15T23:21:42.871Z,81.34
2022-09-15T23:24:12.600Z,81.29
2022-09-15T23:26:41.148Z,81.36
2022-09-15T23:29:10.119Z,81.41
2022-09-15T23:31:38.421Z,81.72
2022-09-15T23:34:06.730Z,81.45
2022-09-15T23:36:34.831Z,81.70
2022-09-15T23:39:03.121Z,81.53
2022-09-15T23:41:31.344Z,81.69
2022-09-15T23:44:00.009Z,81.92
2022-09-15T23:46:28.204Z,81.95
2022-09-15T23:48:56.542Z,82.16
2022-09-15T23:51:24.587Z,82.00
2022-09-15T23:53:52.985Z,82.30
2022-09-15T23:56:21.227Z,82.06
2022-09-15T23:58:49.686Z,82.29
